Time;durP1;ratioP1;P1;durP2;ratioP2;P2;SDS_P1;SDS_P2;PMS_P1;PMS_P2;Temp;Humidity;BMP_temperature;BMP_pressure;BME280_temperature;BME280_humidity;BME280_pressure;Samples;Min_cycle;Max_cycle;Signal;HPM_P1;HPM_P2
2023/06/15 00:00:45;;;;;;;3.33;2.27;;;;;;;;;;5055300;28;20470;-69
2023/06/15 00:03:12;;;;;;;5.77;2.20;;;;;;;;;;5054380;28;20461;-70
2023/06/15 00:05:38;;;;;;;3.10;2.47;;;;;;;;;;5055493;28;20839;-71
2023/06/15 00:08:04;;;;;;;2.60;2.10;;;;;;;;;;5055604;28;20419;-71
2023/06/15 00:10:30;;;;;;;3.30;2.60;;;;;;;;;;5054534;28;20408;-71
2023/06/15 00:12:56;;;;;;;2.40;2.10;;;;;;;;;;5055655;28;20434;-71
2023/06/15 00:15:22;;;;;;;2.67;2.47;;;;;;;;;;5055760;28;20424;-71
2023/06/15 00:17:49;;;;;;;2.80;2.57;;;;;;;;;;5054589;28;20419;-71
2023/06/15 00:20:15;;;;;;;4.43;2.20;;;;;;;;;;5055229;28;20467;-71
2023/06/15 00:22:45;;;;;;;2.83;2.50;;;;;;;;;;5055296;28;20411;-71
2023/06/15 00:25:11;;;;;;;2.40;1.80;;;;;;;;;;5055180;28;20457;-71
2023/06/15 00:27:38;;;;;;;2.30;2.10;;;;;;;;;;5055874;28;20400;-71
2023/06/15 00:30:04;;;;;;;2.50;2.30;;;;;;;;;;5055792;28;20421;-73
2023/06/15 00:32:31;;;;;;;3.20;2.53;;;;;;;;;;5054726;28;20426;-71
2023/06/15 00:34:56;;;;;;;6.50;2.93;;;;;;;;;;5057053;28;20404;-71
2023/06/15 00:37:23;;;;;;;2.70;2.50;;;;;;;;;;5058959;28;20463;-71
2023/06/15 00:39:48;;;;;;;3.40;2.60;;;;;;;;;;5058767;28;20459;-71
2023/06/15 00:42:15;;;;;;;3.23;2.47;;;;;;;;;;5059181;28;20478;-71
2023/06/15 00:44:41;;;;;;;3.10;2.80;;;;;;;;;;5058437;28;20494;-71
2023/06/15 00:47:07;;;;;;;8.67;2.50;;;;;;;;;;5056979;28;20415;-71
2023/06/15 00:49:33;;;;;;;4.10;2.70;;;;;;;;;;5059148;28;20416;-71
2023/06/15 00:52:00;;;;;;;3.17;2.87;;;;;;;;;;5059035;28;20461;-71
2023/06/15 00:54:27;;;;;;;8.23;2.70;;;;;;;;;;5058385;28;20409;-71
2023/06/15 00:56:54;;;;;;;3.47;2.43;;;;;;;;;;5059165;28;20930;-71
2023/06/15 00:59:20;;;;;;;3.20;2.60;;;;;;;;;;5058893;28;20824;-71
2023/06/15 01:01:47;;;;;;;2.47;2.20;;;;;;;;;;5057825;28;20498;-71
2023/06/15 01:04:13;;;;;;;2.50;2.30;;;;;;;;;;5058441;28;20400;-71
2023/06/15 01:06:42;;;;;;;2.43;2.23;;;;;;;;;;5058667;28;20734;-71
2023/06/15 01:09:10;;;;;;;2.40;2.20;;;;;;;;;;5058200;28;20396;-71
2023/06/15 01:11:36;;;;;;;2.80;2.60;;;;;;;;;;5059082;28;20404;-71
2023/06/15 01:14:06;;;;;;;2.53;2.27;;;;;;;;;;5058898;28;20419;-71
2023/06/15 01:16:39;;;;;;;5.20;2.43;;;;;;;;;;5057505;28;20375;-71
2023/06/15 01:19:09;;;;;;;2.60;2.37;;;;;;;;;;5058105;28;20412;-72
2023/06/15 01:21:37;;;;;;;3.10;2.47;;;;;;;;;;5057612;28;20413;-71
2023/06/15 01:24:24;;;;;;;3.80;2.70;;;;;;;;;;5057869;28;20400;-71
2023/06/15 01:26:52;;;;;;;2.60;2.10;;;;;;;;;;5059109;28;20407;-71
2023/06/15 01:29:20;;;;;;;2.40;2.20;;;;;;;;;;5058160;28;20796;-71
2023/06/15 01:31:47;;;;;;;3.47;2.90;;;;;;;;;;5057560;28;20422;-71
2023/06/15 01:34:13;;;;;;;5.60;2.50;;;;;;;;;;5058662;28;20401;-72
2023/06/15 01:36:39;;;;;;;3.90;3.10;;;;;;;;;;5058803;28;20459;-71
2023/06/15 01:39:07;;;;;;;4.20;2.97;;;;;;;;;;5059266;28;20412;-71
2023/06/15 01:41:34;;;;;;;4.30;2.77;;;;;;;;;;5058417;28;20411;-71
2023/06/15 01:44:01;;;;;;;5.83;3.00;;;;;;;;;;5058235;28;20395;-71
2023/06/15 01:46:28;;;;;;;5.20;2.77;;;;;;;;;;5057999;28;20379;-71
2023/06/15 01:48:55;;;;;;;4.20;3.27;;;;;;;;;;5059070;28;20400;-71
2023/06/15 01:51:23;;;;;;;3.90;2.70;;;;;;;;;;5059097;28;20390;-71
2023/06/15 01:53:49;;;;;;;3.00;2.80;;;;;;;;;;5058673;28;20393;-71
2023/06/15 01:56:15;;;;;;;7.33;3.17;;;;;;;;;;5058674;28;20374;-71
2023/06/15 01:58:42;;;;;;;4.97;3.23;;;;;;;;;;5058486;28;20404;-71
2023/06/15 02:01:08;;;;;;;3.03;2.83;;;;;;;;;;5059026;28;20944;-71
2023/06/15 02:03:34;;;;;;;3.40;2.90;;;;;;;;;;5058545;28;20473;-71
2023/06/15 02:06:01;;;;;;;3.40;3.10;;;;;;;;;;5058551;28;20404;-71
2023/06/15 02:08:26;;;;;;;6.83;3.83;;;;;;;;;;5058542;28;20494;-71
2023/06/15 02:10:53;;;;;;;3.20;2.90;;;;;;;;;;5058622;28;20431;-71
2023/06/15 02:13:19;;;;;;;3.43;2.90;;;;;;;;;;5058543;28;20412;-71
2023/06/15 02:15:45;;;;;;;4.73;3.70;;;;;;;;;;5058039;28;20415;-69
2023/06/15 02:18:14;;;;;;;4.60;3.50;;;;;;;;;;5058082;28;20412;-71
2023/06/15 02:20:41;;;;;;;3.40;3.10;;;;;;;;;;5058801;28;20470;-71
2023/06/15 02:23:07;;;;;;;5.00;3.13;;;;;;;;;;5058229;28;20412;-69
2023/06/15 02:25:33;;;;;;;3.33;3.03;;;;;;;;;;5058174;28;20553;-71
2023/06/15 02:27:59;;;;;;;4.40;3.13;;;;;;;;;;5058235;28;20420;-71
2023/06/15 02:30:25;;;;;;;3.40;3.10;;;;;;;;;;5058101;28;20416;-71
2023/06/15 02:32:55;;;;;;;3.97;3.20;;;;;;;;;;5058376;28;20405;-69
2023/06/15 02:35:21;;;;;;;3.83;3.37;;;;;;;;;;5057966;28;20400;-69
2023/06/15 02:37:48;;;;;;;3.57;3.10;;;;;;;;;;5057407;28;20394;-71
2023/06/15 02:40:14;;;;;;;4.00;3.70;;;;;;;;;;5057651;28;20466;-71
2023/06/15 02:42:40;;;;;;;8.03;3.50;;;;;;;;;;5058497;28;20419;-71
2023/06/15 02:45:07;;;;;;;5.73;3.80;;;;;;;;;;5058428;28;20723;-71
2023/06/15 02:47:34;;;;;;;5.60;3.20;;;;;;;;;;5057431;28;20822;-71
2023/06/15 02:50:00;;;;;;;5.77;3.37;;;;;;;;;;5057894;28;20443;-71
2023/06/15 02:52:27;;;;;;;5.87;3.80;;;;;;;;;;5057715;28;20420;-71
2023/06/15 02:54:53;;;;;;;4.60;3.93;;;;;;;;;;5058109;28;20404;-71
2023/06/15 02:57:19;;;;;;;8.33;3.87;;;;;;;;;;5057701;28;20396;-71
2023/06/15 02:59:46;;;;;;;4.53;3.60;;;;;;;;;;5057941;28;20486;-70
2023/06/15 03:02:13;;;;;;;3.83;3.43;;;;;;;;;;5057535;28;20406;-73
2023/06/15 03:04:47;;;;;;;3.80;3.50;;;;;;;;;;5056831;28;20859;-71
2023/06/15 03:07:16;;;;;;;4.20;3.80;;;;;;;;;;5057345;28;20852;-73
2023/06/15 03:09:43;;;;;;;3.70;3.33;;;;;;;;;;5057686;28;20404;-71
2023/06/15 03:12:09;;;;;;;6.20;3.93;;;;;;;;;;5058218;28;20420;-71
2023/06/15 03:14:36;;;;;;;4.53;3.93;;;;;;;;;;5057576;28;20511;-71
2023/06/15 03:17:02;;;;;;;4.37;3.97;;;;;;;;;;5057626;28;20422;-71
2023/06/15 03:19:28;;;;;;;4.80;3.83;;;;;;;;;;5057396;28;20798;-71
2023/06/15 03:21:55;;;;;;;3.90;3.60;;;;;;;;;;5057375;28;20383;-71
2023/06/15 03:24:23;;;;;;;4.30;3.80;;;;;;;;;;5057407;28;20847;-71
2023/06/15 03:26:49;;;;;;;4.90;4.10;;;;;;;;;;5057324;28;20424;-71
2023/06/15 03:29:15;;;;;;;5.50;4.03;;;;;;;;;;5056486;28;20793;-71
2023/06/15 03:31:44;;;;;;;3.67;3.20;;;;;;;;;;5057837;28;20490;-71
2023/06/15 03:34:10;;;;;;;6.63;3.60;;;;;;;;;;5057153;28;20390;-70
2023/06/15 03:36:36;;;;;;;13.33;4.80;;;;;;;;;;5056578;28;20436;-71
2023/06/15 03:39:03;;;;;;;4.87;4.30;;;;;;;;;;5057197;28;20416;-69
2023/06/15 03:41:34;;;;;;;6.87;4.10;;;;;;;;;;5056714;28;20463;-69
2023/06/15 03:44:00;;;;;;;6.30;4.50;;;;;;;;;;5057379;28;20398;-69
2023/06/15 03:46:26;;;;;;;4.70;4.30;;;;;;;;;;5057067;28;20490;-69
2023/06/15 03:48:52;;;;;;;5.20;4.60;;;;;;;;;;5056514;28;20374;-71
2023/06/15 03:51:18;;;;;;;4.73;3.93;;;;;;;;;;5056366;28;20462;-71
2023/06/15 03:53:45;;;;;;;4.80;4.30;;;;;;;;;;5057530;28;20871;-71
2023/06/15 03:56:11;;;;;;;4.97;4.47;;;;;;;;;;5056794;28;20385;-71
2023/06/15 03:58:37;;;;;;;4.43;4.03;;;;;;;;;;5056548;28;20412;-71
2023/06/15 04:01:06;;;;;;;8.93;4.53;;;;;;;;;;5056731;28;20455;-71
2023/06/15 04:03:35;;;;;;;8.37;4.80;;;;;;;;;;5056973;28;20379;-71
2023/06/15 04:06:04;;;;;;;5.77;4.50;;;;;;;;;;5055613;28;20432;-71
2023/06/15 04:08:32;;;;;;;6.17;4.37;;;;;;;;;;5057026;28;20378;-71
2023/06/15 04:10:58;;;;;;;5.13;4.63;;;;;;;;;;5061492;28;20474;-71
2023/06/15 04:13:24;;;;;;;8.80;4.57;;;;;;;;;;5060720;28;20443;-71
2023/06/15 04:15:50;;;;;;;5.60;4.30;;;;;;;;;;5060605;28;20915;-71
2023/06/15 04:18:17;;;;;;;5.00;3.80;;;;;;;;;;5059795;28;20375;-71
2023/06/15 04:20:43;;;;;;;7.43;3.83;;;;;;;;;;5060788;28;20456;-71
2023/06/15 04:23:10;;;;;;;7.30;3.87;;;;;;;;;;5060765;28;20455;-70
2023/06/15 04:25:37;;;;;;;6.63;4.23;;;;;;;;;;5060683;28;20416;-71
2023/06/15 04:28:05;;;;;;;3.50;3.27;;;;;;;;;;5061514;28;20740;-71
2023/06/15 04:30:32;;;;;;;4.23;3.70;;;;;;;;;;5060541;28;20457;-71
2023/06/15 04:32:59;;;;;;;4.87;3.67;;;;;;;;;;5060509;28;20875;-71
2023/06/15 04:35:28;;;;;;;4.20;3.80;;;;;;;;;;5060379;28;20381;-71
2023/06/15 04:37:56;;;;;;;4.17;3.67;;;;;;;;;;5060946;28;20374;-71
2023/06/15 04:40:23;;;;;;;5.07;3.80;;;;;;;;;;5060194;28;20456;-71
2023/06/15 04:42:49;;;;;;;3.87;3.57;;;;;;;;;;5060833;28;20443;-71
2023/06/15 04:45:15;;;;;;;4.97;4.47;;;;;;;;;;5060136;28;20394;-71
2023/06/15 04:47:42;;;;;;;4.43;4.03;;;;;;;;;;5059736;28;20408;-71
2023/06/15 04:50:08;;;;;;;5.43;4.30;;;;;;;;;;5060458;28;20759;-71
2023/06/15 04:52:34;;;;;;;8.73;4.63;;;;;;;;;;5059784;28;20382;-69
2023/06/15 04:55:00;;;;;;;5.77;4.30;;;;;;;;;;5059886;28;20375;-69
2023/06/15 04:57:26;;;;;;;5.73;4.60;;;;;;;;;;5060420;28;20822;-69
2023/06/15 04:59:52;;;;;;;4.43;4.03;;;;;;;;;;5060069;28;20437;-69
2023/06/15 05:02:18;;;;;;;7.97;4.30;;;;;;;;;;5060039;28;20386;-71
2023/06/15 05:04:44;;;;;;;4.53;4.13;;;;;;;;;;5060247;28;20404;-69
2023/06/15 05:07:10;;;;;;;4.97;4.40;;;;;;;;;;5060155;28;20796;-71
2023/06/15 05:09:36;;;;;;;7.20;4.20;;;;;;;;;;5059575;28;20389;-71
2023/06/15 05:12:02;;;;;;;5.30;4.80;;;;;;;;;;5060535;28;20391;-71
2023/06/15 05:14:28;;;;;;;6.77;5.03;;;;;;;;;;5059315;28;20366;-71
2023/06/15 05:16:55;;;;;;;7.57;5.20;;;;;;;;;;5059925;28;20727;-71
2023/06/15 05:19:21;;;;;;;6.13;5.63;;;;;;;;;;5059704;28;20435;-72
2023/06/15 05:21:50;;;;;;;6.17;5.50;;;;;;;;;;5058712;28;20415;-71
2023/06/15 05:24:16;;;;;;;19.87;6.10;;;;;;;;;;5059955;28;20419;-71
2023/06/15 05:26:42;;;;;;;5.80;5.30;;;;;;;;;;5059462;28;20458;-71
2023/06/15 05:29:08;;;;;;;6.10;5.60;;;;;;;;;;5059327;28;20433;-71
2023/06/15 05:31:35;;;;;;;6.30;5.70;;;;;;;;;;5059291;28;20413;-71
2023/06/15 05:34:01;;;;;;;7.33;6.13;;;;;;;;;;5059561;28;20433;-71
2023/06/15 05:36:30;;;;;;;5.93;5.30;;;;;;;;;;5059031;28;20449;-71
2023/06/15 05:38:56;;;;;;;5.70;5.20;;;;;;;;;;5058064;28;20903;-71
2023/06/15 05:41:22;;;;;;;6.67;5.97;;;;;;;;;;5059173;28;20471;-73
2023/06/15 05:43:48;;;;;;;5.83;5.17;;;;;;;;;;5059662;28;20423;-71
2023/06/15 05:46:15;;;;;;;8.10;5.93;;;;;;;;;;5059381;28;20375;-71
2023/06/15 05:48:41;;;;;;;6.73;5.20;;;;;;;;;;5058822;28;20454;-71
2023/06/15 05:51:07;;;;;;;5.83;5.33;;;;;;;;;;5059072;28;20404;-71
2023/06/15 05:53:33;;;;;;;5.77;5.27;;;;;;;;;;5059063;28;20427;-71
2023/06/15 05:55:59;;;;;;;6.13;5.50;;;;;;;;;;5059001;28;20876;-71
2023/06/15 05:58:25;;;;;;;11.60;5.37;;;;;;;;;;5058484;28;20806;-71
2023/06/15 06:00:51;;;;;;;8.47;5.60;;;;;;;;;;5058553;28;20513;-71
2023/06/15 06:03:17;;;;;;;6.60;4.87;;;;;;;;;;5058806;28;20389;-71
2023/06/15 06:05:43;;;;;;;6.67;5.67;;;;;;;;;;5058713;28;20382;-71
2023/06/15 06:08:10;;;;;;;7.83;5.20;;;;;;;;;;5059195;28;20515;-71
2023/06/15 06:10:36;;;;;;;7.43;5.40;;;;;;;;;;5058426;28;20742;-71
2023/06/15 06:13:02;;;;;;;5.60;5.10;;;;;;;;;;5059039;28;20443;-71
2023/06/15 06:15:28;;;;;;;5.63;5.13;;;;;;;;;;5058811;28;20397;-71
2023/06/15 06:17:54;;;;;;;7.70;5.50;;;;;;;;;;5058849;28;20412;-71
2023/06/15 06:20:20;;;;;;;5.73;4.50;;;;;;;;;;5058142;28;20514;-71
2023/06/15 06:22:46;;;;;;;10.10;5.23;;;;;;;;;;5057722;28;20903;-71
2023/06/15 06:25:12;;;;;;;5.20;4.70;;;;;;;;;;5057755;28;20409;-81
2023/06/15 06:27:38;;;;;;;5.10;4.60;;;;;;;;;;5057505;28;20407;-80
2023/06/15 06:30:04;;;;;;;6.60;4.80;;;;;;;;;;5057009;28;20827;-80
2023/06/15 06:32:30;;;;;;;5.37;4.87;;;;;;;;;;5057127;28;20497;-80
2023/06/15 06:34:56;;;;;;;4.83;4.33;;;;;;;;;;5057494;28;20405;-80
2023/06/15 06:37:24;;;;;;;5.00;4.40;;;;;;;;;;5058246;28;20484;-80
2023/06/15 06:39:50;;;;;;;5.13;4.63;;;;;;;;;;5058364;28;20943;-71
2023/06/15 06:42:16;;;;;;;8.57;4.30;;;;;;;;;;5058435;28;20462;-71
2023/06/15 06:44:43;;;;;;;7.20;4.77;;;;;;;;;;5057949;28;20408;-71
2023/06/15 06:47:09;;;;;;;5.53;4.20;;;;;;;;;;5058174;28;20821;-71
2023/06/15 06:49:35;;;;;;;12.97;4.80;;;;;;;;;;5057245;28;20424;-69
2023/06/15 06:52:01;;;;;;;4.20;3.63;;;;;;;;;;5057678;28;20407;-69
2023/06/15 06:54:27;;;;;;;4.87;4.33;;;;;;;;;;5057505;28;20453;-70
2023/06/15 06:56:53;;;;;;;6.33;4.07;;;;;;;;;;5057918;28;20400;-69
2023/06/15 06:59:20;;;;;;;6.37;4.03;;;;;;;;;;5057488;28;20760;-69
2023/06/15 07:01:46;;;;;;;5.13;3.37;;;;;;;;;;5057630;28;20775;-69
2023/06/15 07:04:12;;;;;;;5.53;3.40;;;;;;;;;;5057900;28;20408;-69
2023/06/15 07:06:38;;;;;;;9.43;3.33;;;;;;;;;;5056975;28;20412;-69
2023/06/15 07:09:04;;;;;;;7.13;3.10;;;;;;;;;;5057252;28;20900;-69
2023/06/15 07:11:30;;;;;;;5.40;3.40;;;;;;;;;;5057134;28;20416;-69
2023/06/15 07:13:56;;;;;;;8.37;3.50;;;;;;;;;;5057228;28;20523;-69
2023/06/15 07:16:22;;;;;;;4.47;3.20;;;;;;;;;;5057377;28;20408;-69
2023/06/15 07:18:48;;;;;;;4.93;3.30;;;;;;;;;;5056898;28;20558;-69
2023/06/15 07:21:14;;;;;;;4.10;3.10;;;;;;;;;;5056920;28;20491;-69
2023/06/15 07:23:40;;;;;;;5.90;3.90;;;;;;;;;;5056100;28;20412;-69
2023/06/15 07:26:06;;;;;;;6.00;2.87;;;;;;;;;;5056681;28;20427;-71
2023/06/15 07:28:32;;;;;;;3.30;3.00;;;;;;;;;;5056462;28;20412;-71
2023/06/15 07:30:58;;;;;;;5.50;3.07;;;;;;;;;;5056697;28;20412;-71
2023/06/15 07:33:24;;;;;;;5.57;3.80;;;;;;;;;;5056757;28;20499;-69
2023/06/15 07:35:50;;;;;;;3.70;2.90;;;;;;;;;;5056345;28;20455;-69
2023/06/15 07:38:16;;;;;;;3.80;3.13;;;;;;;;;;5056830;28;20821;-70
2023/06/15 07:40:42;;;;;;;4.20;3.50;;;;;;;;;;5056741;28;20463;-70
2023/06/15 07:43:09;;;;;;;4.20;3.30;;;;;;;;;;5056406;28;20470;-70
2023/06/15 07:45:36;;;;;;;6.73;3.97;;;;;;;;;;5056224;28;20465;-70
2023/06/15 07:48:02;;;;;;;15.93;3.63;;;;;;;;;;5055531;28;20473;-70
2023/06/15 07:50:28;;;;;;;4.53;3.43;;;;;;;;;;5056204;28;20412;-70
2023/06/15 07:52:55;;;;;;;5.67;3.50;;;;;;;;;;5056027;28;20455;-70
2023/06/15 07:55:21;;;;;;;6.63;3.13;;;;;;;;;;5056646;28;20967;-70
2023/06/15 07:57:47;;;;;;;4.17;3.43;;;;;;;;;;5056240;28;20435;-70
2023/06/15 08:00:13;;;;;;;6.30;3.33;;;;;;;;;;5056135;28;20443;-70
2023/06/15 08:02:39;;;;;;;5.40;3.30;;;;;;;;;;5055745;28;20427;-70
2023/06/15 08:05:05;;;;;;;4.87;3.47;;;;;;;;;;5056472;28;20487;-70
2023/06/15 08:07:31;;;;;;;4.30;2.87;;;;;;;;;;5056184;28;20462;-71
2023/06/15 08:09:59;;;;;;;5.73;2.97;;;;;;;;;;5056382;28;20412;-70
2023/06/15 08:12:25;;;;;;;6.10;3.40;;;;;;;;;;5056523;28;20427;-70
2023/06/15 08:14:51;;;;;;;3.07;2.80;;;;;;;;;;5055327;28;20400;-70
2023/06/15 08:17:17;;;;;;;5.03;2.83;;;;;;;;;;5056497;28;20412;-70
2023/06/15 08:19:43;;;;;;;3.20;2.90;;;;;;;;;;5055308;28;20456;-70
2023/06/15 08:22:09;;;;;;;7.50;2.50;;;;;;;;;;5055128;28;20459;-71
2023/06/15 08:24:35;;;;;;;5.00;2.50;;;;;;;;;;5055385;28;20459;-71
2023/06/15 08:27:01;;;;;;;3.80;2.63;;;;;;;;;;5055605;28;20404;-70
2023/06/15 08:29:27;;;;;;;3.07;2.63;;;;;;;;;;5055331;28;20405;-71
2023/06/15 08:31:53;;;;;;;5.67;3.10;;;;;;;;;;5054675;28;20408;-71
2023/06/15 08:34:19;;;;;;;3.73;2.57;;;;;;;;;;5054898;28;20416;-71
2023/06/15 08:36:46;;;;;;;4.10;2.73;;;;;;;;;;5054384;28;20501;-71
2023/06/15 08:39:12;;;;;;;6.70;3.00;;;;;;;;;;5054781;28;20408;-71
2023/06/15 08:41:38;;;;;;;7.73;3.17;;;;;;;;;;5054380;28;20554;-70
2023/06/15 08:44:08;;;;;;;3.23;2.93;;;;;;;;;;5054285;28;20546;-70
2023/06/15 08:46:34;;;;;;;4.03;3.00;;;;;;;;;;5055086;28;20899;-71
2023/06/15 08:49:00;;;;;;;5.37;3.53;;;;;;;;;;5054713;28;20407;-70
2023/06/15 08:51:26;;;;;;;6.00;3.00;;;;;;;;;;5054246;28;20904;-69
2023/06/15 08:53:57;;;;;;;3.10;2.77;;;;;;;;;;5054223;28;20474;-70
2023/06/15 08:56:23;;;;;;;9.70;3.90;;;;;;;;;;5057666;28;20426;-70
2023/06/15 08:58:49;;;;;;;3.13;2.73;;;;;;;;;;5058481;28;20906;-70
2023/06/15 09:01:19;;;;;;;7.37;3.03;;;;;;;;;;5058173;28;20483;-70
2023/06/15 09:03:46;;;;;;;7.13;3.07;;;;;;;;;;5057011;28;20774;-71
2023/06/15 09:06:12;;;;;;;8.13;3.30;;;;;;;;;;5057935;28;20404;-70
2023/06/15 09:08:39;;;;;;;3.20;2.70;;;;;;;;;;5057245;28;21001;-70
2023/06/15 09:11:06;;;;;;;4.13;2.87;;;;;;;;;;5057564;28;20408;-70
2023/06/15 09:13:33;;;;;;;3.27;2.50;;;;;;;;;;5057123;28;20828;-70
2023/06/15 09:16:00;;;;;;;6.90;3.13;;;;;;;;;;5056616;28;20786;-71
2023/06/15 09:18:26;;;;;;;6.67;2.77;;;;;;;;;;5056989;28;20423;-70
2023/06/15 09:20:58;;;;;;;7.27;2.73;;;;;;;;;;5056725;28;20455;-70
2023/06/15 09:23:24;;;;;;;4.93;2.70;;;;;;;;;;5057222;28;20408;-70
2023/06/15 09:25:54;;;;;;;5.43;2.70;;;;;;;;;;5055443;28;20497;-70
2023/06/15 09:28:24;;;;;;;5.50;2.70;;;;;;;;;;5056538;28;20411;-70
2023/06/15 09:30:56;;;;;;;4.07;3.13;;;;;;;;;;5055988;28;20923;-71
2023/06/15 09:33:23;;;;;;;6.10;3.50;;;;;;;;;;5056260;28;20395;-70
2023/06/15 09:35:56;;;;;;;3.47;2.80;;;;;;;;;;5055962;28;20471;-71
2023/06/15 09:38:22;;;;;;;7.00;2.93;;;;;;;;;;5056219;28;20440;-70
2023/06/15 09:40:48;;;;;;;5.07;3.10;;;;;;;;;;5055479;28;20506;-71
2023/06/15 09:43:16;;;;;;;4.00;3.03;;;;;;;;;;5056305;28;20737;-71
2023/06/15 09:45:54;;;;;;;5.03;2.80;;;;;;;;;;5055625;28;20407;-71
2023/06/15 09:48:21;;;;;;;3.70;2.60;;;;;;;;;;5055704;28;20423;-71
2023/06/15 09:50:53;;;;;;;3.90;3.10;;;;;;;;;;5055337;28;20952;-71
2023/06/15 09:53:19;;;;;;;5.40;3.17;;;;;;;;;;5055683;28;20469;-71
2023/06/15 09:55:46;;;;;;;3.30;3.00;;;;;;;;;;5055198;28;20408;-71
2023/06/15 09:58:12;;;;;;;4.60;2.90;;;;;;;;;;5055444;28;20409;-71
2023/06/15 10:00:39;;;;;;;6.07;2.83;;;;;;;;;;5055219;28;20815;-71
2023/06/15 10:03:09;;;;;;;3.80;2.50;;;;;;;;;;5055497;28;20411;-70
2023/06/15 10:05:39;;;;;;;3.67;3.37;;;;;;;;;;5055439;28;20416;-71
2023/06/15 10:08:07;;;;;;;4.37;2.97;;;;;;;;;;5054419;28;20407;-71
2023/06/15 10:10:37;;;;;;;5.40;2.80;;;;;;;;;;5055104;28;20408;-71
2023/06/15 10:13:04;;;;;;;7.73;3.13;;;;;;;;;;5055012;28;20923;-70
2023/06/15 10:15:33;;;;;;;6.00;3.60;;;;;;;;;;5055198;28;20419;-71
2023/06/15 10:18:01;;;;;;;5.00;3.30;;;;;;;;;;5054583;28;20412;-71
2023/06/15 10:20:29;;;;;;;3.63;3.10;;;;;;;;;;5054735;28;20817;-71
2023/06/15 10:23:03;;;;;;;6.27;3.13;;;;;;;;;;5054723;28;20423;-71
2023/06/15 10:25:30;;;;;;;4.67;3.03;;;;;;;;;;5054790;28;20872;-71
2023/06/15 10:27:56;;;;;;;3.37;3.07;;;;;;;;;;5054589;28;20474;-71
2023/06/15 10:30:48;;;;;;;4.70;3.03;;;;;;;;;;5054524;28;20403;-71
2023/06/15 10:33:20;;;;;;;4.17;2.97;;;;;;;;;;5046205;28;20950;-71
2023/06/15 10:35:51;;;;;;;5.23;3.23;;;;;;;;;;5054655;28;20467;-71
2023/06/15 10:38:29;;;;;;;7.40;3.50;;;;;;;;;;5054817;28;20458;-71
2023/06/15 10:40:55;;;;;;;4.43;3.37;;;;;;;;;;5054853;28;20452;-71
2023/06/15 10:43:23;;;;;;;6.57;3.40;;;;;;;;;;5054853;28;20424;-71
2023/06/15 10:45:49;;;;;;;6.80;3.60;;;;;;;;;;5054103;28;20411;-71
2023/06/15 10:48:26;;;;;;;3.63;3.33;;;;;;;;;;5054353;28;20427;-71
2023/06/15 10:50:53;;;;;;;5.20;3.43;;;;;;;;;;5053944;28;20411;-71
2023/06/15 10:53:23;;;;;;;5.17;3.20;;;;;;;;;;5054212;28;20459;-71
2023/06/15 10:55:53;;;;;;;3.90;3.43;;;;;;;;;;5054203;28;20416;-71
2023/06/15 10:58:19;;;;;;;3.63;3.23;;;;;;;;;;5054246;28;20396;-71
2023/06/15 11:00:46;;;;;;;3.43;3.23;;;;;;;;;;5054024;28;20525;-72
2023/06/15 11:03:25;;;;;;;6.33;3.70;;;;;;;;;;5054471;28;20404;-71
2023/06/15 11:06:06;;;;;;;4.83;3.40;;;;;;;;;;5053956;28;20403;-71
2023/06/15 11:08:41;;;;;;;7.63;3.67;;;;;;;;;;5053743;28;20407;-71
2023/06/15 11:11:10;;;;;;;6.70;3.20;;;;;;;;;;5054474;28;20425;-71
2023/06/15 11:13:54;;;;;;;4.77;3.47;;;;;;;;;;5053964;28;20428;-71
2023/06/15 11:16:23;;;;;;;4.03;3.03;;;;;;;;;;5054133;28;20906;-71
2023/06/15 11:18:56;;;;;;;3.87;2.90;;;;;;;;;;5053923;28;20400;-71
2023/06/15 11:21:27;;;;;;;5.80;3.40;;;;;;;;;;5053844;28;20826;-71
2023/06/15 11:23:57;;;;;;;4.23;3.00;;;;;;;;;;5053991;28;20415;-71
2023/06/15 11:26:23;;;;;;;7.60;3.30;;;;;;;;;;5053873;28;20400;-71
2023/06/15 11:28:50;;;;;;;3.60;3.00;;;;;;;;;;5053444;28;20900;-71
2023/06/15 11:31:16;;;;;;;7.23;3.53;;;;;;;;;;5053308;28;20420;-71
2023/06/15 11:33:43;;;;;;;6.00;3.77;;;;;;;;;;5054381;28;20803;-71
2023/06/15 11:36:10;;;;;;;4.03;3.10;;;;;;;;;;5052935;28;20466;-71
2023/06/15 11:38:37;;;;;;;3.80;2.70;;;;;;;;;;5054556;28;20411;-71
2023/06/15 11:41:04;;;;;;;3.23;2.93;;;;;;;;;;5053454;28;20545;-71
2023/06/15 11:43:31;;;;;;;4.23;3.57;;;;;;;;;;5053570;28;20425;-71
2023/06/15 11:45:57;;;;;;;4.80;3.57;;;;;;;;;;5053108;28;20404;-72
2023/06/15 11:48:24;;;;;;;4.27;3.60;;;;;;;;;;5053179;28;20396;-72
2023/06/15 11:50:50;;;;;;;3.67;3.37;;;;;;;;;;5052963;28;20416;-72
2023/06/15 11:53:19;;;;;;;4.73;3.37;;;;;;;;;;5053357;28;20414;-71
2023/06/15 11:55:45;;;;;;;3.27;2.97;;;;;;;;;;5053164;28;20436;-72
2023/06/15 11:58:12;;;;;;;3.30;3.10;;;;;;;;;;5053129;28;20415;-71
2023/06/15 12:00:38;;;;;;;6.20;3.23;;;;;;;;;;5052710;28;20466;-71
2023/06/15 12:03:09;;;;;;;3.77;3.47;;;;;;;;;;5052933;28;20412;-71
2023/06/15 12:05:35;;;;;;;4.27;3.03;;;;;;;;;;5053310;28;20771;-71
2023/06/15 12:08:02;;;;;;;6.77;3.07;;;;;;;;;;5052900;28;20436;-71
2023/06/15 12:10:29;;;;;;;3.83;3.40;;;;;;;;;;5052782;28;20408;-71
2023/06/15 12:12:59;;;;;;;4.30;3.53;;;;;;;;;;5053103;28;20428;-72
2023/06/15 12:15:25;;;;;;;7.07;3.47;;;;;;;;;;5052887;28;20450;-72
2023/06/15 12:17:51;;;;;;;7.77;3.57;;;;;;;;;;5052886;28;20490;-71
2023/06/15 12:20:17;;;;;;;6.20;3.20;;;;;;;;;;5052797;28;20504;-71
2023/06/15 12:22:44;;;;;;;5.90;3.40;;;;;;;;;;5052715;28;20775;-71
2023/06/15 12:25:11;;;;;;;5.13;2.90;;;;;;;;;;5052690;28;20454;-71
2023/06/15 12:27:45;;;;;;;4.80;3.53;;;;;;;;;;5052793;28;20439;-71
2023/06/15 12:30:12;;;;;;;6.03;3.30;;;;;;;;;;5054162;28;20439;-71
2023/06/15 12:32:56;;;;;;;3.60;3.13;;;;;;;;;;5056538;28;20423;-72
2023/06/15 12:35:27;;;;;;;5.27;3.03;;;;;;;;;;5056887;28;20730;-71
2023/06/15 12:37:55;;;;;;;4.73;3.27;;;;;;;;;;5056775;28;20403;-71
2023/06/15 12:40:21;;;;;;;3.30;3.00;;;;;;;;;;5056205;28;20519;-72
2023/06/15 12:42:56;;;;;;;5.37;3.83;;;;;;;;;;5056583;28;20418;-73
2023/06/15 12:45:22;;;;;;;5.03;3.07;;;;;;;;;;5056507;28;20395;-71
2023/06/15 12:47:48;;;;;;;10.53;3.50;;;;;;;;;;5056698;28;20418;-72
2023/06/15 12:50:14;;;;;;;4.03;3.73;;;;;;;;;;5056359;28;20404;-71
2023/06/15 12:52:40;;;;;;;4.37;3.33;;;;;;;;;;5056266;28;20457;-72
2023/06/15 12:55:07;;;;;;;5.90;3.40;;;;;;;;;;5056502;28;20425;-71
2023/06/15 12:57:33;;;;;;;5.07;3.67;;;;;;;;;;5056726;28;20404;-71
2023/06/15 12:59:59;;;;;;;5.13;3.90;;;;;;;;;;5056007;28;20471;-72
2023/06/15 13:02:25;;;;;;;7.30;3.30;;;;;;;;;;5056455;28;20450;-71
2023/06/15 13:04:51;;;;;;;4.33;3.30;;;;;;;;;;5055809;28;20407;-72
2023/06/15 13:07:17;;;;;;;6.17;3.60;;;;;;;;;;5056128;28;20975;-72
2023/06/15 13:09:43;;;;;;;4.03;3.20;;;;;;;;;;5056155;28;20420;-71
2023/06/15 13:12:09;;;;;;;4.30;3.00;;;;;;;;;;5055690;28;20408;-72
2023/06/15 13:14:36;;;;;;;6.20;2.93;;;;;;;;;;5054980;28;20428;-72
2023/06/15 13:17:03;;;;;;;8.43;3.27;;;;;;;;;;5055655;28;20408;-72
2023/06/15 13:19:29;;;;;;;6.30;3.47;;;;;;;;;;5054742;28;20767;-71
2023/06/15 13:21:55;;;;;;;4.30;3.30;;;;;;;;;;5055496;28;20566;-72
2023/06/15 13:24:21;;;;;;;11.77;3.10;;;;;;;;;;5056117;28;20443;-71
2023/06/15 13:26:47;;;;;;;5.37;3.37;;;;;;;;;;5055901;28;20415;-72
2023/06/15 13:29:13;;;;;;;7.10;3.63;;;;;;;;;;5055505;28;20450;-71
2023/06/15 13:31:40;;;;;;;4.77;3.67;;;;;;;;;;5055773;28;20408;-71
2023/06/15 13:34:06;;;;;;;4.00;3.30;;;;;;;;;;5055424;28;20396;-71
2023/06/15 13:36:32;;;;;;;3.20;2.90;;;;;;;;;;5055818;28;20979;-71
2023/06/15 13:38:58;;;;;;;4.33;3.27;;;;;;;;;;5055316;28;20412;-71
2023/06/15 13:41:25;;;;;;;4.27;3.80;;;;;;;;;;5054570;28;20475;-71
2023/06/15 13:43:54;;;;;;;4.13;2.93;;;;;;;;;;5054910;28;20419;-73
2023/06/15 13:46:20;;;;;;;3.93;3.50;;;;;;;;;;5055348;28;20473;-71
2023/06/15 13:48:46;;;;;;;6.20;3.57;;;;;;;;;;5054248;28;20403;-71
2023/06/15 13:51:12;;;;;;;4.47;2.87;;;;;;;;;;5053541;28;20477;-72
2023/06/15 13:53:38;;;;;;;4.67;3.33;;;;;;;;;;5055578;28;20408;-72
2023/06/15 13:56:04;;;;;;;5.37;3.13;;;;;;;;;;5055000;28;20416;-72
2023/06/15 13:58:30;;;;;;;6.37;3.37;;;;;;;;;;5055626;28;20422;-72
2023/06/15 14:00:57;;;;;;;3.57;3.27;;;;;;;;;;5054542;28;20462;-72
2023/06/15 14:03:23;;;;;;;6.73;3.23;;;;;;;;;;5054867;28;20416;-72
2023/06/15 14:05:50;;;;;;;5.43;3.50;;;;;;;;;;5054824;28;20404;-72
2023/06/15 14:08:16;;;;;;;4.33;3.70;;;;;;;;;;5054714;28;20449;-71
2023/06/15 14:10:42;;;;;;;6.80;3.57;;;;;;;;;;5054935;28;20412;-71
2023/06/15 14:13:08;;;;;;;6.03;3.20;;;;;;;;;;5054476;28;20447;-71
2023/06/15 14:15:34;;;;;;;4.73;3.70;;;;;;;;;;5053630;28;20430;-71
2023/06/15 14:18:01;;;;;;;5.47;3.60;;;;;;;;;;5054649;28;20404;-72
2023/06/15 14:20:27;;;;;;;8.20;3.30;;;;;;;;;;5054508;28;20448;-71
2023/06/15 14:22:53;;;;;;;3.20;2.90;;;;;;;;;;5054776;28;20412;-72
2023/06/15 14:25:19;;;;;;;10.17;3.43;;;;;;;;;;5054923;28;20400;-72
2023/06/15 14:27:47;;;;;;;3.57;3.27;;;;;;;;;;5054534;28;20432;-72
2023/06/15 14:30:13;;;;;;;4.10;3.37;;;;;;;;;;5054290;28;20423;-72
2023/06/15 14:32:40;;;;;;;3.50;3.10;;;;;;;;;;5054349;28;20404;-72
2023/06/15 14:35:07;;;;;;;5.60;3.77;;;;;;;;;;5053784;28;20416;-72
2023/06/15 14:37:33;;;;;;;5.40;4.00;;;;;;;;;;5054317;28;20554;-71
2023/06/15 14:39:59;;;;;;;4.97;3.60;;;;;;;;;;5054178;28;20513;-73
2023/06/15 14:42:28;;;;;;;3.80;3.37;;;;;;;;;;5054586;28;20416;-71